sensor_id;sensor_type;location;lat;lon;timestamp;temperature;humidity
21019;DHT22;10667;51.056;3.732;2024-03-22T00:01:58;14.00;99.90
21019;DHT22;10667;51.056;3.732;2024-03-22T00:04:25;13.90;99.90
21019;DHT22;10667;51.056;3.732;2024-03-22T00:06:51;13.80;99.90
21019;DHT22;10667;51.056;3.732;2024-03-22T00:09:17;13.90;99.90
21019;DHT22;10667;51.056;3.732;2024-03-22T00:11:43;13.90;99.90
21019;DHT22;10667;51.056;3.732;2024-03-22T00:14:10;13.80;99.90
21019;DHT22;10667;51.056;3.732;2024-03-22T00:16:36;13.80;99.90
21019;DHT22;10667;51.056;3.732;2024-03-22T00:19:02;13.80;99.90
21019;DHT22;10667;51.056;3.732;2024-03-22T00:21:28;13.90;99.90
21019;DHT22;10667;51.056;3.732;2024-03-22T00:23:55;14.00;99.90
21019;DHT22;10667;51.056;3.732;2024-03-22T00:26:21;14.00;99.90
21019;DHT22;10667;51.056;3.732;2024-03-22T00:28:47;14.10;99.90
21019;DHT22;10667;51.056;3.732;2024-03-22T00:31:12;14.10;99.90
21019;DHT22;10667;51.056;3.732;2024-03-22T00:33:38;14.00;99.90
21019;DHT22;10667;51.056;3.732;2024-03-22T00:36:04;14.20;99.90
21019;DHT22;10667;51.056;3.732;2024-03-22T00:38:30;14.00;99.90
21019;DHT22;10667;51.056;3.732;2024-03-22T00:40:55;14.00;99.90
21019;DHT22;10667;51.056;3.732;2024-03-22T00:43:21;13.90;99.90
21019;DHT22;10667;51.056;3.732;2024-03-22T00:45:47;13.90;99.90
21019;DHT22;10667;51.056;3.732;2024-03-22T00:48:13;13.90;99.90
21019;DHT22;10667;51.056;3.732;2024-03-22T00:50:39;13.80;99.90
21019;DHT22;10667;51.056;3.732;2024-03-22T00:53:04;13.70;99.90
21019;DHT22;10667;51.056;3.732;2024-03-22T00:55:31;13.60;99.90
21019;DHT22;10667;51.056;3.732;2024-03-22T00:57:57;13.60;99.90
21019;DHT22;10667;51.056;3.732;2024-03-22T01:00:23;13.50;99.90
21019;DHT22;10667;51.056;3.732;2024-03-22T01:02:49;13.40;99.90
21019;DHT22;10667;51.056;3.732;2024-03-22T01:05:16;13.10;99.90
21019;DHT22;10667;51.056;3.732;2024-03-22T01:07:41;13.10;99.90
21019;DHT22;10667;51.056;3.732;2024-03-22T01:10:07;13.10;99.90
21019;DHT22;10667;51.056;3.732;2024-03-22T01:12:33;12.90;99.90
21019;DHT22;10667;51.056;3.732;2024-03-22T01:14:59;12.80;99.90
21019;DHT22;10667;51.056;3.732;2024-03-22T01:17:24;12.80;99.90
21019;DHT22;10667;51.056;3.732;2024-03-22T01:19:51;12.80;99.90
21019;DHT22;10667;51.056;3.732;2024-03-22T01:22:17;12.80;99.90
21019;DHT22;10667;51.056;3.732;2024-03-22T01:24:44;12.80;99.90
21019;DHT22;10667;51.056;3.732;2024-03-22T01:27:09;12.80;99.90
21019;DHT22;10667;51.056;3.732;2024-03-22T01:29:35;12.80;99.90
21019;DHT22;10667;51.056;3.732;2024-03-22T01:32:02;12.70;99.90
21019;DHT22;10667;51.056;3.732;2024-03-22T01:34:27;12.50;99.90
21019;DHT22;10667;51.056;3.732;2024-03-22T01:36:53;12.50;99.90
21019;DHT22;10667;51.056;3.732;2024-03-22T01:39:20;12.50;99.90
21019;DHT22;10667;51.056;3.732;2024-03-22T01:41:49;12.50;99.90
21019;DHT22;10667;51.056;3.732;2024-03-22T01:44:16;12.50;99.90
21019;DHT22;10667;51.056;3.732;2024-03-22T01:46:42;12.50;99.90
21019;DHT22;10667;51.056;3.732;2024-03-22T01:49:09;12.50;99.90
21019;DHT22;10667;51.056;3.732;2024-03-22T01:51:37;12.50;99.90
21019;DHT22;10667;51.056;3.732;2024-03-22T01:54:03;12.50;99.90
21019;DHT22;10667;51.056;3.732;2024-03-22T01:56:30;12.40;99.90
21019;DHT22;10667;51.056;3.732;2024-03-22T01:58:56;12.40;99.90
21019;DHT22;10667;51.056;3.732;2024-03-22T02:01:22;12.30;99.90
21019;DHT22;10667;51.056;3.732;2024-03-22T02:03:47;12.40;99.90
21019;DHT22;10667;51.056;3.732;2024-03-22T02:06:13;12.50;99.90
21019;DHT22;10667;51.056;3.732;2024-03-22T02:08:40;12.50;99.90
21019;DHT22;10667;51.056;3.732;2024-03-22T02:11:07;12.40;99.90
21019;DHT22;10667;51.056;3.732;2024-03-22T02:13:33;12.40;99.90
21019;DHT22;10667;51.056;3.732;2024-03-22T02:15:59;12.30;99.90
21019;DHT22;10667;51.056;3.732;2024-03-22T02:18:25;12.30;99.90
21019;DHT22;10667;51.056;3.732;2024-03-22T02:20:50;12.30;99.90
21019;DHT22;10667;51.056;3.732;2024-03-22T02:23:16;12.30;99.90
21019;DHT22;10667;51.056;3.732;2024-03-22T02:25:42;12.30;99.90
21019;DHT22;10667;51.056;3.732;2024-03-22T02:28:08;12.30;99.90
21019;DHT22;10667;51.056;3.732;2024-03-22T02:30:33;12.40;99.90
21019;DHT22;10667;51.056;3.732;2024-03-22T02:32:59;12.50;99.90
21019;DHT22;10667;51.056;3.732;2024-03-22T02:35:24;12.40;99.90
21019;DHT22;10667;51.056;3.732;2024-03-22T02:37:50;12.30;99.90
21019;DHT22;10667;51.056;3.732;2024-03-22T02:40:16;12.40;99.90
21019;DHT22;10667;51.056;3.732;2024-03-22T02:42:41;12.40;99.90
21019;DHT22;10667;51.056;3.732;2024-03-22T02:45:07;12.50;99.90
21019;DHT22;10667;51.056;3.732;2024-03-22T02:47:33;12.40;99.90
21019;DHT22;10667;51.056;3.732;2024-03-22T02:49:59;12.20;99.90
21019;DHT22;10667;51.056;3.732;2024-03-22T02:52:24;12.00;99.90
21019;DHT22;10667;51.056;3.732;2024-03-22T02:54:50;11.90;99.90
21019;DHT22;10667;51.056;3.732;2024-03-22T02:57:15;12.00;99.90
21019;DHT22;10667;51.056;3.732;2024-03-22T02:59:41;12.10;99.90
21019;DHT22;10667;51.056;3.732;2024-03-22T03:02:06;12.00;99.90
21019;DHT22;10667;51.056;3.732;2024-03-22T03:04:32;12.00;99.90
21019;DHT22;10667;51.056;3.732;2024-03-22T03:06:58;11.90;99.90
21019;DHT22;10667;51.056;3.732;2024-03-22T03:09:23;11.90;99.90
21019;DHT22;10667;51.056;3.732;2024-03-22T03:11:49;11.90;99.90
21019;DHT22;10667;51.056;3.732;2024-03-22T03:14:14;11.90;99.90
21019;DHT22;10667;51.056;3.732;2024-03-22T03:16:40;11.80;99.90
21019;DHT22;10667;51.056;3.732;2024-03-22T03:19:05;11.80;99.90
21019;DHT22;10667;51.056;3.732;2024-03-22T03:21:31;11.90;99.90
21019;DHT22;10667;51.056;3.732;2024-03-22T03:23:57;12.00;99.90
21019;DHT22;10667;51.056;3.732;2024-03-22T03:26:22;12.10;99.90
21019;DHT22;10667;51.056;3.732;2024-03-22T03:28:48;12.10;99.90
21019;DHT22;10667;51.056;3.732;2024-03-22T03:31:13;12.00;99.90
21019;DHT22;10667;51.056;3.732;2024-03-22T03:33:39;12.00;99.90
21019;DHT22;10667;51.056;3.732;2024-03-22T03:36:05;12.00;99.90
21019;DHT22;10667;51.056;3.732;2024-03-22T03:38:30;11.90;99.90
21019;DHT22;10667;51.056;3.732;2024-03-22T03:40:56;11.80;99.90
21019;DHT22;10667;51.056;3.732;2024-03-22T03:43:21;11.90;99.90
21019;DHT22;10667;51.056;3.732;2024-03-22T03:45:47;11.90;99.90
21019;DHT22;10667;51.056;3.732;2024-03-22T03:48:13;11.80;99.90
21019;DHT22;10667;51.056;3.732;2024-03-22T03:50:38;11.90;99.90
21019;DHT22;10667;51.056;3.732;2024-03-22T03:53:04;11.80;99.90
21019;DHT22;10667;51.056;3.732;2024-03-22T03:55:29;11.80;99.90
21019;DHT22;10667;51.056;3.732;2024-03-22T03:57:55;11.90;99.90
21019;DHT22;10667;51.056;3.732;2024-03-22T04:00:21;11.90;99.90
21019;DHT22;10667;51.056;3.732;2024-03-22T04:02:48;11.90;99.90
21019;DHT22;10667;51.056;3.732;2024-03-22T04:05:14;11.80;99.90
21019;DHT22;10667;51.056;3.732;2024-03-22T04:07:40;11.90;99.90
21019;DHT22;10667;51.056;3.732;2024-03-22T04:10:08;11.90;99.90
21019;DHT22;10667;51.056;3.732;2024-03-22T04:12:34;11.90;99.90
21019;DHT22;10667;51.056;3.732;2024-03-22T04:15:00;11.90;99.90
21019;DHT22;10667;51.056;3.732;2024-03-22T04:17:25;11.90;99.90
21019;DHT22;10667;51.056;3.732;2024-03-22T04:19:51;11.90;99.90
21019;DHT22;10667;51.056;3.732;2024-03-22T04:22:17;12.00;99.90
21019;DHT22;10667;51.056;3.732;2024-03-22T04:24:43;11.90;99.90
21019;DHT22;10667;51.056;3.732;2024-03-22T04:27:08;11.80;99.90
21019;DHT22;10667;51.056;3.732;2024-03-22T04:29:34;11.80;99.90
21019;DHT22;10667;51.056;3.732;2024-03-22T04:32:00;11.80;99.90
21019;DHT22;10667;51.056;3.732;2024-03-22T04:34:25;11.90;99.90
21019;DHT22;10667;51.056;3.732;2024-03-22T04:36:51;11.80;99.90
21019;DHT22;10667;51.056;3.732;2024-03-22T04:39:21;11.90;99.90
21019;DHT22;10667;51.056;3.732;2024-03-22T04:41:47;11.90;99.90
21019;DHT22;10667;51.056;3.732;2024-03-22T04:44:12;11.90;99.90
21019;DHT22;10667;51.056;3.732;2024-03-22T04:46:38;11.90;99.90
21019;DHT22;10667;51.056;3.732;2024-03-22T04:49:04;11.90;99.90
21019;DHT22;10667;51.056;3.732;2024-03-22T04:51:30;11.90;99.90
21019;DHT22;10667;51.056;3.732;2024-03-22T04:53:55;11.90;99.90
21019;DHT22;10667;51.056;3.732;2024-03-22T04:56:21;12.00;99.90
21019;DHT22;10667;51.056;3.732;2024-03-22T04:58:46;12.00;99.90
21019;DHT22;10667;51.056;3.732;2024-03-22T05:01:13;12.00;99.90
21019;DHT22;10667;51.056;3.732;2024-03-22T05:03:38;12.10;99.90
21019;DHT22;10667;51.056;3.732;2024-03-22T05:06:06;11.90;99.90
21019;DHT22;10667;51.056;3.732;2024-03-22T05:08:32;12.00;99.90
21019;DHT22;10667;51.056;3.732;2024-03-22T05:10:58;11.90;99.90
21019;DHT22;10667;51.056;3.732;2024-03-22T05:13:23;12.00;99.90
21019;DHT22;10667;51.056;3.732;2024-03-22T05:15:49;12.00;99.90
21019;DHT22;10667;51.056;3.732;2024-03-22T05:18:14;12.10;99.90
21019;DHT22;10667;51.056;3.732;2024-03-22T05:20:40;11.90;99.90
21019;DHT22;10667;51.056;3.732;2024-03-22T05:23:06;11.90;99.90
21019;DHT22;10667;51.056;3.732;2024-03-22T05:25:31;11.90;99.90
21019;DHT22;10667;51.056;3.732;2024-03-22T05:27:57;12.00;99.90
21019;DHT22;10667;51.056;3.732;2024-03-22T05:30:22;12.00;99.90
21019;DHT22;10667;51.056;3.732;2024-03-22T05:32:48;12.00;99.90
21019;DHT22;10667;51.056;3.732;2024-03-22T05:35:15;12.00;99.90
21019;DHT22;10667;51.056;3.732;2024-03-22T05:37:41;11.90;99.90
21019;DHT22;10667;51.056;3.732;2024-03-22T05:40:07;11.90;99.90
21019;DHT22;10667;51.056;3.732;2024-03-22T05:42:34;12.00;99.90
21019;DHT22;10667;51.056;3.732;2024-03-22T05:44:59;12.00;99.90
21019;DHT22;10667;51.056;3.732;2024-03-22T05:47:25;11.90;99.90
21019;DHT22;10667;51.056;3.732;2024-03-22T05:49:51;11.80;99.90
21019;DHT22;10667;51.056;3.732;2024-03-22T05:52:17;11.80;99.90
21019;DHT22;10667;51.056;3.732;2024-03-22T05:54:43;11.70;99.90
21019;DHT22;10667;51.056;3.732;2024-03-22T05:57:09;11.80;99.90
21019;DHT22;10667;51.056;3.732;2024-03-22T05:59:34;11.80;99.90
21019;DHT22;10667;51.056;3.732;2024-03-22T06:02:00;11.90;99.90
21019;DHT22;10667;51.056;3.732;2024-03-22T06:04:26;11.80;99.90
21019;DHT22;10667;51.056;3.732;2024-03-22T06:06:52;11.80;99.90
21019;DHT22;10667;51.056;3.732;2024-03-22T06:09:17;11.80;99.90
21019;DHT22;10667;51.056;3.732;2024-03-22T06:11:50;11.90;99.90
21019;DHT22;10667;51.056;3.732;2024-03-22T06:14:16;11.90;99.90
21019;DHT22;10667;51.056;3.732;2024-03-22T06:16:42;11.90;99.90
21019;DHT22;10667;51.056;3.732;2024-03-22T06:19:08;12.00;99.90
21019;DHT22;10667;51.056;3.732;2024-03-22T06:21:33;12.00;99.90
21019;DHT22;10667;51.056;3.732;2024-03-22T06:23:59;12.00;99.90
21019;DHT22;10667;51.056;3.732;2024-03-22T06:26:24;12.00;99.90
21019;DHT22;10667;51.056;3.732;2024-03-22T06:28:50;12.00;99.90
21019;DHT22;10667;51.056;3.732;2024-03-22T06:31:15;12.00;99.90
21019;DHT22;10667;51.056;3.732;2024-03-22T06:33:41;11.90;99.90
21019;DHT22;10667;51.056;3.732;2024-03-22T06:36:07;12.00;99.90
21019;DHT22;10667;51.056;3.732;2024-03-22T06:38:33;12.00;99.90
21019;DHT22;10667;51.056;3.732;2024-03-22T06:40:58;12.10;99.90
21019;DHT22;10667;51.056;3.732;2024-03-22T06:43:24;12.10;99.90
21019;DHT22;10667;51.056;3.732;2024-03-22T06:45:50;12.10;99.90
21019;DHT22;10667;51.056;3.732;2024-03-22T06:48:16;12.10;99.90
21019;DHT22;10667;51.056;3.732;2024-03-22T06:50:42;12.10;99.90
21019;DHT22;10667;51.056;3.732;2024-03-22T06:53:07;12.10;99.90
21019;DHT22;10667;51.056;3.732;2024-03-22T06:55:35;12.00;99.90
21019;DHT22;10667;51.056;3.732;2024-03-22T06:58:00;11.90;99.90
21019;DHT22;10667;51.056;3.732;2024-03-22T07:00:26;11.90;99.90
21019;DHT22;10667;51.056;3.732;2024-03-22T07:02:52;11.90;99.90
21019;DHT22;10667;51.056;3.732;2024-03-22T07:05:17;11.90;99.90
21019;DHT22;10667;51.056;3.732;2024-03-22T07:07:43;11.80;99.90
21019;DHT22;10667;51.056;3.732;2024-03-22T07:10:09;11.90;99.90
21019;DHT22;10667;51.056;3.732;2024-03-22T07:12:35;11.90;99.90
21019;DHT22;10667;51.056;3.732;2024-03-22T07:15:01;11.90;99.90
21019;DHT22;10667;51.056;3.732;2024-03-22T07:17:27;12.00;99.90
21019;DHT22;10667;51.056;3.732;2024-03-22T07:19:53;12.10;99.90
21019;DHT22;10667;51.056;3.732;2024-03-22T07:22:20;12.20;99.90
21019;DHT22;10667;51.056;3.732;2024-03-22T07:24:46;12.20;99.90
21019;DHT22;10667;51.056;3.732;2024-03-22T07:27:12;12.30;99.90
21019;DHT22;10667;51.056;3.732;2024-03-22T07:29:39;12.20;99.90
21019;DHT22;10667;51.056;3.732;2024-03-22T07:32:05;12.20;99.90
21019;DHT22;10667;51.056;3.732;2024-03-22T07:34:31;12.20;99.90
21019;DHT22;10667;51.056;3.732;2024-03-22T07:36:57;12.20;99.90
21019;DHT22;10667;51.056;3.732;2024-03-22T07:39:22;12.30;99.90
21019;DHT22;10667;51.056;3.732;2024-03-22T07:41:49;12.50;99.90
21019;DHT22;10667;51.056;3.732;2024-03-22T07:44:15;12.40;99.90
21019;DHT22;10667;51.056;3.732;2024-03-22T07:46:46;12.40;99.90
21019;DHT22;10667;51.056;3.732;2024-03-22T07:49:14;12.40;99.90
21019;DHT22;10667;51.056;3.732;2024-03-22T07:51:40;12.40;99.90
21019;DHT22;10667;51.056;3.732;2024-03-22T07:54:06;12.40;99.90
21019;DHT22;10667;51.056;3.732;2024-03-22T07:56:31;12.60;99.90
21019;DHT22;10667;51.056;3.732;2024-03-22T07:58:57;12.60;99.90
21019;DHT22;10667;51.056;3.732;2024-03-22T08:01:23;12.60;99.90
21019;DHT22;10667;51.056;3.732;2024-03-22T08:03:49;12.50;99.90
21019;DHT22;10667;51.056;3.732;2024-03-22T08:06:15;12.40;99.90
21019;DHT22;10667;51.056;3.732;2024-03-22T08:08:41;12.30;99.90
21019;DHT22;10667;51.056;3.732;2024-03-22T08:11:06;12.40;99.90
21019;DHT22;10667;51.056;3.732;2024-03-22T08:13:32;12.50;99.90
21019;DHT22;10667;51.056;3.732;2024-03-22T08:15:57;12.60;99.90
21019;DHT22;10667;51.056;3.732;2024-03-22T08:18:23;12.60;99.90
21019;DHT22;10667;51.056;3.732;2024-03-22T08:20:49;12.80;99.90
21019;DHT22;10667;51.056;3.732;2024-03-22T08:23:14;12.70;99.90
21019;DHT22;10667;51.056;3.732;2024-03-22T08:25:40;12.70;99.90
21019;DHT22;10667;51.056;3.732;2024-03-22T08:28:05;12.80;99.90
21019;DHT22;10667;51.056;3.732;2024-03-22T08:30:31;12.90;99.90
21019;DHT22;10667;51.056;3.732;2024-03-22T08:32:57;12.80;99.90
21019;DHT22;10667;51.056;3.732;2024-03-22T08:35:22;12.80;99.90
21019;DHT22;10667;51.056;3.732;2024-03-22T08:37:48;12.80;99.90
21019;DHT22;10667;51.056;3.732;2024-03-22T08:40:13;12.90;99.90
21019;DHT22;10667;51.056;3.732;2024-03-22T08:42:39;13.00;99.90
21019;DHT22;10667;51.056;3.732;2024-03-22T08:45:06;13.00;99.90
21019;DHT22;10667;51.056;3.732;2024-03-22T08:47:32;13.10;99.90
21019;DHT22;10667;51.056;3.732;2024-03-22T08:49:59;13.10;99.90
21019;DHT22;10667;51.056;3.732;2024-03-22T08:52:25;13.10;99.90
21019;DHT22;10667;51.056;3.732;2024-03-22T08:54:52;13.20;99.90
21019;DHT22;10667;51.056;3.732;2024-03-22T08:57:17;13.10;99.90
21019;DHT22;10667;51.056;3.732;2024-03-22T08:59:43;13.20;99.90
21019;DHT22;10667;51.056;3.732;2024-03-22T09:02:09;13.40;99.90
21019;DHT22;10667;51.056;3.732;2024-03-22T09:04:35;13.30;99.90
21019;DHT22;10667;51.056;3.732;2024-03-22T09:07:00;13.20;99.90
21019;DHT22;10667;51.056;3.732;2024-03-22T09:09:26;13.00;99.90
21019;DHT22;10667;51.056;3.732;2024-03-22T09:11:51;13.10;99.90
21019;DHT22;10667;51.056;3.732;2024-03-22T09:14:18;13.00;99.90
21019;DHT22;10667;51.056;3.732;2024-03-22T09:16:43;13.00;99.90
21019;DHT22;10667;51.056;3.732;2024-03-22T09:19:09;12.90;99.90
21019;DHT22;10667;51.056;3.732;2024-03-22T09:21:36;12.90;99.90
21019;DHT22;10667;51.056;3.732;2024-03-22T09:24:02;13.00;99.90
21019;DHT22;10667;51.056;3.732;2024-03-22T09:26:28;13.10;99.90
21019;DHT22;10667;51.056;3.732;2024-03-22T09:28:54;13.20;99.90
21019;DHT22;10667;51.056;3.732;2024-03-22T09:31:20;13.10;99.90
21019;DHT22;10667;51.056;3.732;2024-03-22T09:33:45;13.10;99.90
21019;DHT22;10667;51.056;3.732;2024-03-22T09:36:11;13.10;99.90
21019;DHT22;10667;51.056;3.732;2024-03-22T09:38:36;13.10;99.90
21019;DHT22;10667;51.056;3.732;2024-03-22T09:41:03;13.00;99.90
21019;DHT22;10667;51.056;3.732;2024-03-22T09:43:30;13.20;99.90
21019;DHT22;10667;51.056;3.732;2024-03-22T09:45:58;13.20;99.90
21019;DHT22;10667;51.056;3.732;2024-03-22T09:48:24;13.20;99.90
21019;DHT22;10667;51.056;3.732;2024-03-22T09:50:50;13.10;99.90
21019;DHT22;10667;51.056;3.732;2024-03-22T09:53:20;13.20;99.90
21019;DHT22;10667;51.056;3.732;2024-03-22T09:55:47;13.30;99.90
21019;DHT22;10667;51.056;3.732;2024-03-22T09:58:13;13.20;99.90
21019;DHT22;10667;51.056;3.732;2024-03-22T10:00:39;13.30;99.90
21019;DHT22;10667;51.056;3.732;2024-03-22T10:03:05;13.40;99.90
21019;DHT22;10667;51.056;3.732;2024-03-22T10:05:31;13.40;99.90
21019;DHT22;10667;51.056;3.732;2024-03-22T10:07:57;13.20;99.90
21019;DHT22;10667;51.056;3.732;2024-03-22T10:10:23;13.00;99.90
21019;DHT22;10667;51.056;3.732;2024-03-22T10:12:49;13.10;99.90
21019;DHT22;10667;51.056;3.732;2024-03-22T10:15:14;13.10;99.90
21019;DHT22;10667;51.056;3.732;2024-03-22T10:17:42;13.10;99.90
21019;DHT22;10667;51.056;3.732;2024-03-22T10:20:08;13.20;99.90
21019;DHT22;10667;51.056;3.732;2024-03-22T10:22:42;13.20;99.90
21019;DHT22;10667;51.056;3.732;2024-03-22T10:25:09;13.30;99.90
21019;DHT22;10667;51.056;3.732;2024-03-22T10:27:38;13.20;99.90
21019;DHT22;10667;51.056;3.732;2024-03-22T10:30:08;13.30;99.90
21019;DHT22;10667;51.056;3.732;2024-03-22T10:32:33;13.50;99.90
21019;DHT22;10667;51.056;3.732;2024-03-22T10:35:04;13.40;99.90
21019;DHT22;10667;51.056;3.732;2024-03-22T10:37:32;13.40;99.90
21019;DHT22;10667;51.056;3.732;2024-03-22T10:40:01;13.40;99.90
21019;DHT22;10667;51.056;3.732;2024-03-22T10:42:36;13.30;99.90
21019;DHT22;10667;51.056;3.732;2024-03-22T10:45:06;13.40;99.90
21019;DHT22;10667;51.056;3.732;2024-03-22T10:47:34;13.50;99.90
21019;DHT22;10667;51.056;3.732;2024-03-22T10:50:10;13.50;99.90
21019;DHT22;10667;51.056;3.732;2024-03-22T10:52:49;13.40;99.90
21019;DHT22;10667;51.056;3.732;2024-03-22T10:55:27;13.30;99.90
21019;DHT22;10667;51.056;3.732;2024-03-22T10:57:56;13.20;99.90
21019;DHT22;10667;51.056;3.732;2024-03-22T11:00:35;13.00;99.90
21019;DHT22;10667;51.056;3.732;2024-03-22T11:03:02;13.20;99.90
21019;DHT22;10667;51.056;3.732;2024-03-22T11:05:28;13.10;99.90
21019;DHT22;10667;51.056;3.732;2024-03-22T11:08:00;13.20;99.90
21019;DHT22;10667;51.056;3.732;2024-03-22T11:10:29;13.30;99.90
21019;DHT22;10667;51.056;3.732;2024-03-22T11:13:04;13.30;99.90
21019;DHT22;10667;51.056;3.732;2024-03-22T11:15:30;13.30;99.90
21019;DHT22;10667;51.056;3.732;2024-03-22T11:17:57;13.50;99.90
21019;DHT22;10667;51.056;3.732;2024-03-22T11:20:23;13.50;99.90
21019;DHT22;10667;51.056;3.732;2024-03-22T11:22:49;13.50;99.90
21019;DHT22;10667;51.056;3.732;2024-03-22T11:25:16;13.40;99.90
21019;DHT22;10667;51.056;3.732;2024-03-22T11:27:41;13.40;99.90
21019;DHT22;10667;51.056;3.732;2024-03-22T11:30:07;13.40;99.90
21019;DHT22;10667;51.056;3.732;2024-03-22T11:32:33;13.40;99.90
21019;DHT22;10667;51.056;3.732;2024-03-22T11:35:09;13.40;99.90
21019;DHT22;10667;51.056;3.732;2024-03-22T11:37:35;13.40;99.90
21019;DHT22;10667;51.056;3.732;2024-03-22T11:40:01;13.40;99.90
21019;DHT22;10667;51.056;3.732;2024-03-22T11:42:32;13.50;99.90
21019;DHT22;10667;51.056;3.732;2024-03-22T11:44:58;13.50;99.90
21019;DHT22;10667;51.056;3.732;2024-03-22T11:47:24;13.50;99.90
21019;DHT22;10667;51.056;3.732;2024-03-22T11:49:50;13.40;99.90
21019;DHT22;10667;51.056;3.732;2024-03-22T11:52:16;13.40;99.90
21019;DHT22;10667;51.056;3.732;2024-03-22T11:54:42;13.50;99.90
21019;DHT22;10667;51.056;3.732;2024-03-22T11:57:09;13.60;99.90
21019;DHT22;10667;51.056;3.732;2024-03-22T11:59:35;13.70;99.90
21019;DHT22;10667;51.056;3.732;2024-03-22T12:02:00;13.60;99.90
21019;DHT22;10667;51.056;3.732;2024-03-22T12:04:26;13.60;99.90
21019;DHT22;10667;51.056;3.732;2024-03-22T12:06:52;13.60;99.90
21019;DHT22;10667;51.056;3.732;2024-03-22T12:09:18;13.60;99.90
21019;DHT22;10667;51.056;3.732;2024-03-22T12:11:44;13.60;99.90
21019;DHT22;10667;51.056;3.732;2024-03-22T12:14:09;13.60;99.90
21019;DHT22;10667;51.056;3.732;2024-03-22T12:16:35;13.50;99.90
21019;DHT22;10667;51.056;3.732;2024-03-22T12:19:01;13.50;99.90
21019;DHT22;10667;51.056;3.732;2024-03-22T12:21:28;13.40;99.90
21019;DHT22;10667;51.056;3.732;2024-03-22T12:23:54;13.20;99.90
21019;DHT22;10667;51.056;3.732;2024-03-22T12:26:19;13.30;99.90
21019;DHT22;10667;51.056;3.732;2024-03-22T12:28:45;13.20;99.90
21019;DHT22;10667;51.056;3.732;2024-03-22T12:31:11;13.20;99.90
21019;DHT22;10667;51.056;3.732;2024-03-22T12:33:37;13.20;99.90
21019;DHT22;10667;51.056;3.732;2024-03-22T12:36:04;13.00;99.90
21019;DHT22;10667;51.056;3.732;2024-03-22T12:38:30;13.00;99.90
21019;DHT22;10667;51.056;3.732;2024-03-22T12:40:56;13.00;99.90
21019;DHT22;10667;51.056;3.732;2024-03-22T12:43:21;12.90;99.90
21019;DHT22;10667;51.056;3.732;2024-03-22T12:45:47;12.90;99.90
21019;DHT22;10667;51.056;3.732;2024-03-22T12:48:13;12.90;99.90
21019;DHT22;10667;51.056;3.732;2024-03-22T12:50:38;13.00;99.90
21019;DHT22;10667;51.056;3.732;2024-03-22T12:53:04;13.10;99.90
21019;DHT22;10667;51.056;3.732;2024-03-22T12:55:30;13.10;99.90
21019;DHT22;10667;51.056;3.732;2024-03-22T12:57:57;13.10;99.90
21019;DHT22;10667;51.056;3.732;2024-03-22T13:00:23;13.00;99.90
21019;DHT22;10667;51.056;3.732;2024-03-22T13:02:48;13.00;99.90
21019;DHT22;10667;51.056;3.732;2024-03-22T13:05:14;13.00;99.90
21019;DHT22;10667;51.056;3.732;2024-03-22T13:07:41;13.00;99.90
21019;DHT22;10667;51.056;3.732;2024-03-22T13:10:07;12.90;99.90
21019;DHT22;10667;51.056;3.732;2024-03-22T13:12:33;12.90;99.90
21019;DHT22;10667;51.056;3.732;2024-03-22T13:15:00;12.80;99.90
21019;DHT22;10667;51.056;3.732;2024-03-22T13:17:26;12.80;99.90
21019;DHT22;10667;51.056;3.732;2024-03-22T13:19:51;12.80;99.90
21019;DHT22;10667;51.056;3.732;2024-03-22T13:22:17;12.70;99.90
21019;DHT22;10667;51.056;3.732;2024-03-22T13:24:47;12.80;99.90
21019;DHT22;10667;51.056;3.732;2024-03-22T13:27:13;12.80;99.90
21019;DHT22;10667;51.056;3.732;2024-03-22T13:29:40;12.80;99.90
21019;DHT22;10667;51.056;3.732;2024-03-22T13:32:05;12.80;99.90
21019;DHT22;10667;51.056;3.732;2024-03-22T13:34:34;12.70;99.90
21019;DHT22;10667;51.056;3.732;2024-03-22T13:37:00;12.60;99.90
21019;DHT22;10667;51.056;3.732;2024-03-22T13:39:25;12.50;99.90
21019;DHT22;10667;51.056;3.732;2024-03-22T13:41:51;12.40;99.90
21019;DHT22;10667;51.056;3.732;2024-03-22T13:44:16;12.40;99.90
21019;DHT22;10667;51.056;3.732;2024-03-22T13:46:42;12.40;99.90
21019;DHT22;10667;51.056;3.732;2024-03-22T13:49:15;12.40;99.90
21019;DHT22;10667;51.056;3.732;2024-03-22T13:51:42;12.50;99.90
21019;DHT22;10667;51.056;3.732;2024-03-22T13:54:07;12.50;99.90
21019;DHT22;10667;51.056;3.732;2024-03-22T13:56:33;12.50;99.90
21019;DHT22;10667;51.056;3.732;2024-03-22T13:58:59;12.40;99.90
21019;DHT22;10667;51.056;3.732;2024-03-22T14:01:24;12.30;99.90
21019;DHT22;10667;51.056;3.732;2024-03-22T14:03:50;12.30;99.90
21019;DHT22;10667;51.056;3.732;2024-03-22T14:06:16;12.40;99.90
21019;DHT22;10667;51.056;3.732;2024-03-22T14:08:42;12.40;99.90
21019;DHT22;10667;51.056;3.732;2024-03-22T14:11:07;12.40;99.90
21019;DHT22;10667;51.056;3.732;2024-03-22T14:13:33;12.30;99.90
21019;DHT22;10667;51.056;3.732;2024-03-22T14:15:59;12.40;99.90
21019;DHT22;10667;51.056;3.732;2024-03-22T14:18:24;12.30;99.90
21019;DHT22;10667;51.056;3.732;2024-03-22T14:20:50;12.30;99.90
21019;DHT22;10667;51.056;3.732;2024-03-22T14:23:15;12.40;99.90
21019;DHT22;10667;51.056;3.732;2024-03-22T14:25:41;12.30;99.90
21019;DHT22;10667;51.056;3.732;2024-03-22T14:28:07;12.30;99.90
21019;DHT22;10667;51.056;3.732;2024-03-22T14:30:33;12.40;99.90
21019;DHT22;10667;51.056;3.732;2024-03-22T14:32:58;12.30;99.90
21019;DHT22;10667;51.056;3.732;2024-03-22T14:35:24;12.30;99.90
21019;DHT22;10667;51.056;3.732;2024-03-22T14:37:49;12.30;99.90
21019;DHT22;10667;51.056;3.732;2024-03-22T14:40:15;12.20;99.90
21019;DHT22;10667;51.056;3.732;2024-03-22T14:42:42;12.40;99.90
21019;DHT22;10667;51.056;3.732;2024-03-22T14:45:09;12.50;99.90
21019;DHT22;10667;51.056;3.732;2024-03-22T14:47:36;12.40;99.90
21019;DHT22;10667;51.056;3.732;2024-03-22T14:50:01;12.40;99.90
21019;DHT22;10667;51.056;3.732;2024-03-22T14:52:27;12.40;99.90
21019;DHT22;10667;51.056;3.732;2024-03-22T14:54:53;12.30;99.90
21019;DHT22;10667;51.056;3.732;2024-03-22T14:57:18;12.20;99.90
21019;DHT22;10667;51.056;3.732;2024-03-22T14:59:45;12.30;99.90
21019;DHT22;10667;51.056;3.732;2024-03-22T15:02:11;12.30;99.90
21019;DHT22;10667;51.056;3.732;2024-03-22T15:04:36;12.30;99.90
21019;DHT22;10667;51.056;3.732;2024-03-22T15:07:02;12.30;99.90
21019;DHT22;10667;51.056;3.732;2024-03-22T15:09:27;12.30;99.90
21019;DHT22;10667;51.056;3.732;2024-03-22T15:11:53;12.40;99.90
21019;DHT22;10667;51.056;3.732;2024-03-22T15:14:24;12.40;99.90
21019;DHT22;10667;51.056;3.732;2024-03-22T15:16:50;12.30;99.90
21019;DHT22;10667;51.056;3.732;2024-03-22T15:19:16;12.40;99.90
21019;DHT22;10667;51.056;3.732;2024-03-22T15:21:41;12.30;99.90
21019;DHT22;10667;51.056;3.732;2024-03-22T15:24:07;12.30;99.90